sensor_id;sensor_type;location;lat;lon;timestamp;pressure;altitude;pressure_sealevel;temperature;humidity
27980;BME280;15315;50.836;4.430;2024-03-22T00:06:20;101674.97;;;18.89;76.47
27980;BME280;15315;50.836;4.430;2024-03-22T00:16:20;101665.41;;;18.74;76.24
27980;BME280;15315;50.836;4.430;2024-03-22T00:26:20;101647.00;;;18.76;74.38
27980;BME280;15315;50.836;4.430;2024-03-22T00:36:21;101649.78;;;18.95;72.57
27980;BME280;15315;50.836;4.430;2024-03-22T00:46:22;101647.31;;;18.31;74.92
27980;BME280;15315;50.836;4.430;2024-03-22T00:56:22;101645.09;;;19.06;71.38
27980;BME280;15315;50.836;4.430;2024-03-22T01:06:23;101623.75;;;18.81;71.37
27980;BME280;15315;50.836;4.430;2024-03-22T01:16:25;101613.78;;;18.71;71.39
27980;BME280;15315;50.836;4.430;2024-03-22T01:26:26;101588.38;;;18.59;72.07
27980;BME280;15315;50.836;4.430;2024-03-22T01:36:26;101579.88;;;18.13;75.43
27980;BME280;15315;50.836;4.430;2024-03-22T01:46:26;101576.47;;;18.20;75.59
27980;BME280;15315;50.836;4.430;2024-03-22T01:56:27;101578.41;;;18.48;72.97
27980;BME280;15315;50.836;4.430;2024-03-22T02:06:27;101570.41;;;18.17;75.16
27980;BME280;15315;50.836;4.430;2024-03-22T02:16:28;101550.78;;;17.61;77.98
27980;BME280;15315;50.836;4.430;2024-03-22T02:26:28;101546.31;;;18.01;76.43
27980;BME280;15315;50.836;4.430;2024-03-22T02:36:29;101534.88;;;18.07;75.16
27980;BME280;15315;50.836;4.430;2024-03-22T02:46:29;101514.56;;;18.00;75.82
27980;BME280;15315;50.836;4.430;2024-03-22T02:56:29;101518.44;;;17.98;75.61
27980;BME280;15315;50.836;4.430;2024-03-22T03:06:30;101502.75;;;17.07;79.06
27980;BME280;15315;50.836;4.430;2024-03-22T03:16:30;101495.19;;;17.82;76.27
27980;BME280;15315;50.836;4.430;2024-03-22T03:26:31;101482.56;;;18.02;74.72
27980;BME280;15315;50.836;4.430;2024-03-22T03:36:31;101484.84;;;18.37;72.47
27980;BME280;15315;50.836;4.430;2024-03-22T03:46:32;101467.72;;;17.95;73.61
27980;BME280;15315;50.836;4.430;2024-03-22T03:56:32;101450.06;;;17.89;73.06
27980;BME280;15315;50.836;4.430;2024-03-22T04:06:32;101445.44;;;17.60;74.54
27980;BME280;15315;50.836;4.430;2024-03-22T04:16:34;101428.72;;;17.74;73.60
27980;BME280;15315;50.836;4.430;2024-03-22T04:26:35;101435.13;;;17.01;76.74
27980;BME280;15315;50.836;4.430;2024-03-22T04:36:35;101428.53;;;17.66;74.61
27980;BME280;15315;50.836;4.430;2024-03-22T04:46:35;101406.47;;;17.78;73.29
27980;BME280;15315;50.836;4.430;2024-03-22T04:56:36;101426.72;;;17.46;75.35
27980;BME280;15315;50.836;4.430;2024-03-22T05:06:36;101425.97;;;17.02;77.28
27980;BME280;15315;50.836;4.430;2024-03-22T05:16:37;101411.44;;;17.64;74.38
27980;BME280;15315;50.836;4.430;2024-03-22T05:26:37;101403.53;;;17.10;76.58
27980;BME280;15315;50.836;4.430;2024-03-22T05:36:38;101399.31;;;17.06;77.62
27980;BME280;15315;50.836;4.430;2024-03-22T05:46:38;101404.28;;;17.42;75.52
27980;BME280;15315;50.836;4.430;2024-03-22T05:56:38;101392.13;;;16.84;79.06
27980;BME280;15315;50.836;4.430;2024-03-22T06:06:39;101418.59;;;17.14;76.97
27980;BME280;15315;50.836;4.430;2024-03-22T06:16:39;101400.78;;;16.26;80.18
27980;BME280;15315;50.836;4.430;2024-03-22T06:26:40;101394.88;;;17.05;77.43
27980;BME280;15315;50.836;4.430;2024-03-22T06:36:40;101391.97;;;17.17;76.20
27980;BME280;15315;50.836;4.430;2024-03-22T06:46:40;101398.84;;;16.48;79.04
27980;BME280;15315;50.836;4.430;2024-03-22T06:56:41;101391.88;;;16.55;77.42
27980;BME280;15315;50.836;4.430;2024-03-22T07:06:41;101402.75;;;16.87;75.61
27980;BME280;15315;50.836;4.430;2024-03-22T07:16:42;101398.50;;;16.94;75.80
27980;BME280;15315;50.836;4.430;2024-03-22T07:26:42;101386.78;;;16.62;76.56
27980;BME280;15315;50.836;4.430;2024-03-22T07:36:43;101389.19;;;16.44;74.31
27980;BME280;15315;50.836;4.430;2024-03-22T07:46:44;101374.72;;;16.96;72.98
27980;BME280;15315;50.836;4.430;2024-03-22T07:56:45;101370.25;;;16.95;74.00
27980;BME280;15315;50.836;4.430;2024-03-22T08:06:45;101381.50;;;17.02;72.71
27980;BME280;15315;50.836;4.430;2024-03-22T08:16:46;101381.88;;;16.56;71.89
27980;BME280;15315;50.836;4.430;2024-03-22T08:26:46;101383.09;;;17.46;68.77
27980;BME280;15315;50.836;4.430;2024-03-22T08:36:47;101361.91;;;17.59;68.93
27980;BME280;15315;50.836;4.430;2024-03-22T08:46:47;101360.00;;;17.50;68.41
27980;BME280;15315;50.836;4.430;2024-03-22T08:56:49;101338.66;;;18.04;66.95
27980;BME280;15315;50.836;4.430;2024-03-22T09:06:50;101348.75;;;17.73;65.59
27980;BME280;15315;50.836;4.430;2024-03-22T09:16:50;101323.00;;;18.06;65.66
27980;BME280;15315;50.836;4.430;2024-03-22T09:26:50;101323.59;;;18.19;64.87
27980;BME280;15315;50.836;4.430;2024-03-22T09:36:51;101314.94;;;17.46;65.60
27980;BME280;15315;50.836;4.430;2024-03-22T09:46:51;101320.00;;;18.28;61.68
27980;BME280;15315;50.836;4.430;2024-03-22T09:56:53;101307.22;;;18.77;60.73
27980;BME280;15315;50.836;4.430;2024-03-22T10:06:54;101292.25;;;18.90;60.51
27980;BME280;15315;50.836;4.430;2024-03-22T10:16:55;101285.00;;;19.08;59.40
27980;BME280;15315;50.836;4.430;2024-03-22T10:26:56;101278.50;;;18.63;60.02
27980;BME280;15315;50.836;4.430;2024-03-22T10:37:01;101268.41;;;18.83;59.41
27980;BME280;15315;50.836;4.430;2024-03-22T10:47:04;101281.59;;;19.70;57.21
27980;BME280;15315;50.836;4.430;2024-03-22T10:57:05;101274.41;;;20.32;55.98
27980;BME280;15315;50.836;4.430;2024-03-22T11:07:07;101264.31;;;19.88;55.77
27980;BME280;15315;50.836;4.430;2024-03-22T11:17:08;101245.25;;;19.78;55.59
27980;BME280;15315;50.836;4.430;2024-03-22T11:27:10;101234.47;;;20.73;54.94
27980;BME280;15315;50.836;4.430;2024-03-22T11:37:11;101244.91;;;20.08;55.10
27980;BME280;15315;50.836;4.430;2024-03-22T11:47:11;101235.16;;;19.61;55.87
27980;BME280;15315;50.836;4.430;2024-03-22T11:57:12;101224.72;;;19.47;55.66
27980;BME280;15315;50.836;4.430;2024-03-22T12:07:17;101196.13;;;19.94;55.23
27980;BME280;15315;50.836;4.430;2024-03-22T12:17:17;101174.41;;;19.75;55.37
27980;BME280;15315;50.836;4.430;2024-03-22T12:27:18;101179.34;;;18.90;58.27
27980;BME280;15315;50.836;4.430;2024-03-22T12:37:18;101172.78;;;19.10;58.08
27980;BME280;15315;50.836;4.430;2024-03-22T12:47:19;101156.88;;;19.23;58.17
27980;BME280;15315;50.836;4.430;2024-03-22T12:57:19;101143.94;;;19.25;58.07
27980;BME280;15315;50.836;4.430;2024-03-22T13:07:19;101134.56;;;18.73;58.71
27980;BME280;15315;50.836;4.430;2024-03-22T13:17:21;101115.97;;;18.86;59.48
27980;BME280;15315;50.836;4.430;2024-03-22T13:27:21;101100.91;;;19.00;58.89
27980;BME280;15315;50.836;4.430;2024-03-22T13:37:23;101090.38;;;18.50;59.33
27980;BME280;15315;50.836;4.430;2024-03-22T13:47:23;101077.41;;;18.62;59.81
27980;BME280;15315;50.836;4.430;2024-03-22T13:57:24;101056.31;;;19.62;57.59
27980;BME280;15315;50.836;4.430;2024-03-22T14:07:26;101040.69;;;19.19;58.58
27980;BME280;15315;50.836;4.430;2024-03-22T14:17:27;101029.72;;;19.72;57.78
27980;BME280;15315;50.836;4.430;2024-03-22T14:27:28;101019.84;;;18.73;61.60
27980;BME280;15315;50.836;4.430;2024-03-22T14:37:28;101010.75;;;19.00;61.69
27980;BME280;15315;50.836;4.430;2024-03-22T14:47:29;100997.25;;;18.44;64.59
27980;BME280;15315;50.836;4.430;2024-03-22T14:57:29;100982.72;;;17.89;71.50
27980;BME280;15315;50.836;4.430;2024-03-22T15:07:30;100967.00;;;18.37;71.15
27980;BME280;15315;50.836;4.430;2024-03-22T15:17:31;100963.59;;;18.80;71.61
27980;BME280;15315;50.836;4.430;2024-03-22T15:27:31;100970.78;;;18.99;72.68
27980;BME280;15315;50.836;4.430;2024-03-22T15:37:31;100954.66;;;17.50;89.27
27980;BME280;15315;50.836;4.430;2024-03-22T15:47:32;100939.78;;;17.06;93.45
27980;BME280;15315;50.836;4.430;2024-03-22T15:57:32;100928.31;;;17.87;90.21
27980;BME280;15315;50.836;4.430;2024-03-22T16:07:34;100931.06;;;18.15;89.66
27980;BME280;15315;50.836;4.430;2024-03-22T16:17:35;100920.41;;;17.75;92.94
27980;BME280;15315;50.836;4.430;2024-03-22T16:27:35;100912.22;;;17.38;95.08
27980;BME280;15315;50.836;4.430;2024-03-22T16:37:35;100901.13;;;17.49;93.94
27980;BME280;15315;50.836;4.430;2024-03-22T16:47:36;100891.00;;;17.32;97.22
27980;BME280;15315;50.836;4.430;2024-03-22T16:57:37;100880.69;;;17.36;96.96
27980;BME280;15315;50.836;4.430;2024-03-22T17:07:38;100863.47;;;17.35;96.48
27980;BME280;15315;50.836;4.430;2024-03-22T17:17:39;100862.25;;;17.10;98.54
27980;BME280;15315;50.836;4.430;2024-03-22T17:27:39;100848.59;;;17.20;97.18
27980;BME280;15315;50.836;4.430;2024-03-22T17:37:41;100867.16;;;15.39;100.00
27980;BME280;15315;50.836;4.430;2024-03-22T17:47:41;100852.41;;;16.12;100.00
27980;BME280;15315;50.836;4.430;2024-03-22T17:57:41;100854.50;;;16.48;100.00
27980;BME280;15315;50.836;4.430;2024-03-22T18:07:42;100836.84;;;16.24;100.00
27980;BME280;15315;50.836;4.430;2024-03-22T18:17:43;100833.16;;;16.53;100.00
27980;BME280;15315;50.836;4.430;2024-03-22T18:27:43;100831.63;;;16.11;100.00
27980;BME280;15315;50.836;4.430;2024-03-22T18:37:44;100836.19;;;16.01;100.00
27980;BME280;15315;50.836;4.430;2024-03-22T18:47:44;100848.88;;;15.72;100.00
27980;BME280;15315;50.836;4.430;2024-03-22T18:57:44;100828.28;;;15.39;100.00
27980;BME280;15315;50.836;4.430;2024-03-22T19:07:45;100823.34;;;16.13;100.00
27980;BME280;15315;50.836;4.430;2024-03-22T19:17:46;100820.44;;;15.25;100.00
27980;BME280;15315;50.836;4.430;2024-03-22T19:27:46;100803.41;;;14.93;100.00
27980;BME280;15315;50.836;4.430;2024-03-22T19:37:46;100792.31;;;15.26;100.00
27980;BME280;15315;50.836;4.430;2024-03-22T19:47:47;100797.31;;;15.51;100.00
27980;BME280;15315;50.836;4.430;2024-03-22T19:57:47;100783.81;;;15.89;100.00
27980;BME280;15315;50.836;4.430;2024-03-22T20:07:48;100786.63;;;15.78;100.00
27980;BME280;15315;50.836;4.430;2024-03-22T20:17:49;100785.94;;;15.86;100.00
27980;BME280;15315;50.836;4.430;2024-03-22T20:27:52;100784.88;;;14.77;100.00
